Time;durP1;ratioP1;P1;durP2;ratioP2;P2;SDS_P1;SDS_P2;PMS_P1;PMS_P2;Temp;Humidity;BMP_temperature;BMP_pressure;BME280_temperature;BME280_humidity;BME280_pressure;Samples;Min_cycle;Max_cycle;Signal;HPM_P1;HPM_P2
2022/11/20 00:00:37;;;;;;;20.30;9.90;;;;;;;-2.15;100.00;101306.13;5047834;28;20036;-36
2022/11/20 00:03:03;;;;;;;17.70;9.77;;;;;;;-2.18;100.00;101301.88;5042866;28;20033;-37
2022/11/20 00:05:28;;;;;;;16.83;9.60;;;;;;;-2.21;100.00;101302.06;5044278;28;20033;-36
2022/11/20 00:07:53;;;;;;;19.65;10.25;;;;;;;-2.13;100.00;101289.28;5037676;28;20029;-37
2022/11/20 00:10:19;;;;;;;21.42;10.90;;;;;;;-2.12;100.00;101298.88;5048173;28;20075;-35
2022/11/20 00:12:44;;;;;;;19.98;10.98;;;;;;;-2.18;100.00;101287.84;5050995;28;20029;-35
2022/11/20 00:15:09;;;;;;;21.80;10.50;;;;;;;-2.26;100.00;101286.50;5049504;28;20116;-36
2022/11/20 00:17:35;;;;;;;17.85;9.80;;;;;;;-2.28;100.00;101284.88;5036606;28;20032;-34
2022/11/20 00:20:00;;;;;;;21.67;10.75;;;;;;;-2.31;100.00;101290.34;5037178;28;20071;-36
2022/11/20 00:22:26;;;;;;;23.25;10.73;;;;;;;-2.37;100.00;101295.94;5029828;28;20029;-35
2022/11/20 00:24:51;;;;;;;22.45;10.20;;;;;;;-2.39;100.00;101297.84;5029693;28;20037;-37
2022/11/20 00:27:16;;;;;;;21.17;10.80;;;;;;;-2.43;100.00;101292.72;5039118;28;20258;-35
2022/11/20 00:29:42;;;;;;;19.90;9.80;;;;;;;-2.43;100.00;101289.25;5042451;28;20116;-36
2022/11/20 00:32:07;;;;;;;19.52;9.88;;;;;;;-2.43;100.00;101276.06;5031330;28;20108;-35
2022/11/20 00:34:32;;;;;;;22.40;9.98;;;;;;;-2.51;100.00;101284.41;5031046;28;20471;-35
2022/11/20 00:36:58;;;;;;;22.30;10.30;;;;;;;-2.53;100.00;101277.50;5047282;28;20448;-35
2022/11/20 00:39:23;;;;;;;20.73;10.15;;;;;;;-2.52;100.00;101271.34;5030592;28;20380;-35
2022/11/20 00:41:48;;;;;;;18.35;9.65;;;;;;;-2.52;100.00;101276.59;5030059;28;20027;-34
2022/11/20 00:44:14;;;;;;;22.98;10.90;;;;;;;-2.51;100.00;101287.03;5033993;28;20095;-39
2022/11/20 00:46:39;;;;;;;20.63;10.80;;;;;;;-2.49;100.00;101290.44;5043697;28;20257;-35
2022/11/20 00:49:04;;;;;;;20.08;11.00;;;;;;;-2.49;100.00;101282.53;5034525;28;20033;-35
2022/11/20 00:51:30;;;;;;;21.30;10.73;;;;;;;-2.41;100.00;101284.72;5030327;28;20036;-35
2022/11/20 00:53:59;;;;;;;19.92;10.73;;;;;;;-2.37;100.00;101278.38;5041263;28;20051;-37
2022/11/20 00:56:25;;;;;;;23.95;11.02;;;;;;;-2.29;100.00;101275.25;5030559;28;20041;-35
2022/11/20 00:58:51;;;;;;;22.65;11.73;;;;;;;-2.28;100.00;101274.34;5039365;28;20052;-35
2022/11/20 01:01:18;;;;;;;23.95;11.35;;;;;;;-2.36;100.00;101287.13;5046519;28;20033;-36
2022/11/20 01:03:46;;;;;;;22.13;11.27;;;;;;;-2.46;100.00;101292.91;5040717;28;20121;-39
2022/11/20 01:06:19;;;;;;;23.63;11.15;;;;;;;-2.49;100.00;101282.53;5020957;28;20120;-36
2022/11/20 01:08:45;;;;;;;19.35;10.70;;;;;;;-2.43;100.00;101266.34;5039125;28;20029;-35
2022/11/20 01:11:13;;;;;;;23.02;11.65;;;;;;;-2.36;100.00;101264.22;5028557;28;20087;-37
2022/11/20 01:13:38;;;;;;;18.58;10.02;;;;;;;-2.27;100.00;101270.75;5031012;28;20120;-36
2022/11/20 01:16:11;;;;;;;21.27;11.50;;;;;;;-2.31;100.00;101256.06;5030384;28;20548;-35
2022/11/20 01:18:37;;;;;;;23.55;11.15;;;;;;;-2.40;100.00;101262.69;5045286;28;20045;-36
2022/11/20 01:21:18;;;;;;;20.60;10.02;;;;;;;-2.48;100.00;101263.13;5029932;28;20096;-37
2022/11/20 01:23:44;;;;;;;17.88;10.35;;;;;;;-2.53;100.00;101281.00;5031724;28;20527;-39
2022/11/20 01:26:13;;;;;;;21.27;10.73;;;;;;;-2.59;100.00;101286.63;5027828;28;20524;-38
2022/11/20 01:28:40;;;;;;;21.25;11.23;;;;;;;-2.64;100.00;101272.84;5027617;28;20452;-35
2022/11/20 01:31:17;;;;;;;17.17;9.23;;;;;;;-2.66;100.00;101280.00;5043639;28;20056;-35
2022/11/20 01:33:44;;;;;;;21.23;10.85;;;;;;;-2.71;100.00;101276.78;5028974;28;20038;-35
2022/11/20 01:36:10;;;;;;;21.60;10.35;;;;;;;-2.77;100.00;101271.84;5037484;28;20025;-38
2022/11/20 01:38:35;;;;;;;21.80;10.90;;;;;;;-2.77;100.00;101271.84;5036358;28;20056;-36
2022/11/20 01:41:01;;;;;;;22.73;10.23;;;;;;;-2.79;100.00;101268.44;5042978;28;20467;-38
2022/11/20 01:43:28;;;;;;;24.13;10.98;;;;;;;-2.83;100.00;101270.41;5038934;28;20033;-35
2022/11/20 01:45:59;;;;;;;22.67;11.50;;;;;;;-2.85;100.00;101263.53;5033230;28;20029;-36
2022/11/20 01:48:27;;;;;;;23.40;10.60;;;;;;;-2.88;100.00;101265.38;5041118;28;20064;-37
2022/11/20 01:50:53;;;;;;;23.58;10.70;;;;;;;-2.88;100.00;101275.09;5030094;28;20036;-34
2022/11/20 01:53:21;;;;;;;22.23;10.77;;;;;;;-2.90;100.00;101272.53;5039267;28;20442;-35
2022/11/20 01:55:53;;;;;;;22.25;10.35;;;;;;;-2.91;100.00;101267.34;5046359;28;20037;-35
2022/11/20 01:58:22;;;;;;;19.73;11.15;;;;;;;-2.89;100.00;101266.34;5053602;28;20032;-36
2022/11/20 02:00:48;;;;;;;20.42;10.35;;;;;;;-2.92;100.00;101266.50;5027785;28;20024;-35
2022/11/20 02:03:16;;;;;;;26.20;12.07;;;;;;;-2.94;100.00;101271.00;5037823;28;20386;-37
2022/11/20 02:06:05;;;;;;;21.88;11.02;;;;;;;-2.96;100.00;101267.59;5052592;28;20094;-36
2022/11/20 02:08:30;;;;;;;23.83;11.80;;;;;;;-2.95;100.00;101264.06;5044791;28;20119;-37
2022/11/20 02:10:55;;;;;;;20.30;11.10;;;;;;;-2.96;100.00;101278.13;5042401;28;20025;-36
2022/11/20 02:16:09;;;;;;;25.50;12.15;;;;;;;-2.99;100.00;101262.50;5039493;28;20064;-35
2022/11/20 02:18:35;;;;;;;20.85;11.07;;;;;;;-2.97;100.00;101260.66;5040018;28;20033;-36
2022/11/20 02:21:06;;;;;;;25.17;11.88;;;;;;;-2.99;100.00;101261.66;5030884;28;20037;-35
2022/11/20 02:23:39;;;;;;;21.23;10.77;;;;;;;-2.99;100.00;101257.25;5031603;28;20402;-35
2022/11/20 02:26:07;;;;;;;22.42;11.35;;;;;;;-2.95;100.00;101252.63;5039170;28;20044;-35
2022/11/20 02:28:33;;;;;;;19.52;10.77;;;;;;;-2.90;100.00;101253.25;5037089;28;20032;-35
2022/11/20 02:30:58;;;;;;;25.70;11.63;;;;;;;-2.90;100.00;101246.22;5043001;28;20033;-35
2022/11/20 02:33:25;;;;;;;22.40;11.73;;;;;;;-2.93;100.00;101246.34;5028870;28;20119;-37
2022/11/20 02:35:50;;;;;;;23.10;11.38;;;;;;;-2.95;100.00;101244.75;5038260;28;20052;-36
2022/11/20 02:38:16;;;;;;;24.50;12.60;;;;;;;-2.92;100.00;101239.31;5043405;28;20020;-36
2022/11/20 02:40:41;;;;;;;23.45;11.32;;;;;;;-2.89;100.00;101236.53;5052849;28;20483;-36
2022/11/20 02:43:07;;;;;;;22.73;11.32;;;;;;;-2.87;100.00;101234.63;5045840;28;20029;-38
2022/11/20 02:45:32;;;;;;;26.88;11.65;;;;;;;-2.90;100.00;101235.69;5052516;28;20116;-37
2022/11/20 02:47:58;;;;;;;22.42;12.00;;;;;;;-2.92;100.00;101232.28;5045383;28;20049;-38
2022/11/20 02:50:23;;;;;;;28.13;12.10;;;;;;;-2.93;100.00;101232.34;5032887;28;20534;-38
2022/11/20 02:52:49;;;;;;;24.23;11.77;;;;;;;-2.97;100.00;101234.31;5031108;28;20018;-36
2022/11/20 02:55:14;;;;;;;24.38;11.82;;;;;;;-2.98;100.00;101240.50;5042007;28;20060;-35
2022/11/20 02:57:39;;;;;;;21.42;11.48;;;;;;;-2.99;100.00;101236.16;5047901;28;20086;-39
2022/11/20 03:00:06;;;;;;;23.23;11.40;;;;;;;-2.98;100.00;101227.31;5036475;28;20103;-39
2022/11/20 03:02:32;;;;;;;22.00;11.70;;;;;;;-2.95;100.00;101223.69;5040108;28;20099;-37
2022/11/20 03:04:57;;;;;;;23.08;10.88;;;;;;;-2.95;100.00;101216.66;5040350;28;20163;-36
2022/11/20 03:07:23;;;;;;;23.25;12.30;;;;;;;-2.96;100.00;101203.56;5036023;28;20040;-38
2022/11/20 03:09:48;;;;;;;26.58;12.10;;;;;;;-3.00;100.00;101209.91;5042958;28;20364;-35
2022/11/20 03:12:14;;;;;;;22.95;11.43;;;;;;;-3.04;100.00;101217.16;5047592;28;20021;-38
2022/11/20 03:14:39;;;;;;;24.40;12.43;;;;;;;-3.04;100.00;101217.16;5051841;28;20036;-36
2022/11/20 03:17:04;;;;;;;22.20;11.93;;;;;;;-3.04;100.00;101209.25;5047000;28;20493;-38
2022/11/20 03:19:30;;;;;;;24.27;11.63;;;;;;;-3.01;100.00;101202.97;5032428;28;20465;-35
2022/11/20 03:21:55;;;;;;;21.00;11.57;;;;;;;-3.02;100.00;101204.75;5032905;28;20030;-39
2022/11/20 03:24:21;;;;;;;22.50;11.68;;;;;;;-3.03;100.00;101196.91;5050660;28;20121;-36
2022/11/20 03:26:47;;;;;;;23.23;11.88;;;;;;;-3.06;100.00;101195.31;5049030;28;20028;-34
2022/11/20 03:29:12;;;;;;;22.25;11.77;;;;;;;-3.09;100.00;101198.13;5038294;28;20028;-35
2022/11/20 03:31:42;;;;;;;26.25;12.57;;;;;;;-3.10;100.00;101201.69;5033951;28;20033;-36
2022/11/20 03:34:10;;;;;;;21.77;11.55;;;;;;;-3.10;100.00;101205.19;5031806;28;20057;-38
2022/11/20 03:36:37;;;;;;;;;;;;;;;-3.12;100.00;101201.78;5036108;28;20096;-36
2022/11/20 03:39:02;;;;;;;20.10;11.05;;;;;;;-3.12;100.00;101198.28;5048816;28;19917;-35
2022/11/20 03:41:35;;;;;;;21.75;11.95;;;;;;;-3.11;100.00;101194.72;5044309;28;20114;-38
2022/11/20 03:44:02;;;;;;;24.08;11.70;;;;;;;-3.15;100.00;101195.84;5031590;28;20025;-36
2022/11/20 03:46:28;;;;;;;23.05;11.93;;;;;;;-3.18;100.00;101198.66;5047122;28;20025;-36
2022/11/20 03:48:53;;;;;;;22.05;11.90;;;;;;;-3.16;100.00;101183.59;5049871;28;20035;-35
2022/11/20 03:51:21;;;;;;;26.90;13.20;;;;;;;-3.14;100.00;101184.34;5042352;28;20044;-36
2022/11/20 03:53:47;;;;;;;21.20;11.40;;;;;;;-3.19;100.00;101166.19;5046187;28;20033;-36
2022/11/20 03:56:14;;;;;;;23.75;12.13;;;;;;;-3.16;100.00;101159.91;5039347;28;20018;-35
2022/11/20 03:58:40;;;;;;;26.33;11.55;;;;;;;-3.18;100.00;101148.63;5046846;28;20257;-37
2022/11/20 04:01:17;;;;;;;24.38;12.50;;;;;;;-3.22;100.00;101160.25;5043848;28;20033;-35
2022/11/20 04:03:43;;;;;;;23.52;12.75;;;;;;;-3.16;100.00;101149.38;5046939;28;20107;-36
2022/11/20 04:06:10;;;;;;;25.42;11.98;;;;;;;-3.20;100.00;101148.69;5030697;28;20345;-34
2022/11/20 04:08:36;;;;;;;21.92;11.35;;;;;;;-3.17;100.00;101138.00;5040914;28;20391;-37
2022/11/20 04:11:29;;;;;;;23.30;13.23;;;;;;;-3.18;100.00;101133.69;5035353;28;20029;-38
2022/11/20 04:13:56;;;;;;;26.92;13.25;;;;;;;-3.23;100.00;101132.25;5028862;28;20080;-38
2022/11/20 04:16:22;;;;;;;20.70;10.87;;;;;;;-3.19;100.00;101123.22;5032719;28;20081;-38
2022/11/20 04:18:54;;;;;;;26.63;12.32;;;;;;;-3.22;100.00;101118.13;5036006;28;20742;-38
2022/11/20 04:21:20;;;;;;;23.00;11.82;;;;;;;-3.29;100.00;101122.03;5030344;28;20180;-34
2022/11/20 04:23:45;;;;;;;21.88;12.63;;;;;;;-3.34;100.00;101117.91;5030003;28;20021;-34
2022/11/20 04:26:11;;;;;;;26.88;13.05;;;;;;;-3.35;100.00;101124.06;5050556;28;20475;-35
2022/11/20 04:28:37;;;;;;;23.98;12.10;;;;;;;-3.38;100.00;101129.50;5049639;28;20032;-35
2022/11/20 04:31:03;;;;;;;25.48;12.63;;;;;;;-3.39;100.00;101133.09;5040210;28;20056;-38
2022/11/20 04:33:29;;;;;;;27.10;12.73;;;;;;;-3.41;100.00;101140.22;5033866;28;20029;-37
2022/11/20 04:35:54;;;;;;;23.75;12.65;;;;;;;-3.44;100.00;101148.28;5029892;28;20036;-35
2022/11/20 04:38:19;;;;;;;30.30;13.38;;;;;;;-3.41;100.00;101153.38;5045674;28;20329;-34
2022/11/20 04:40:45;;;;;;;25.48;13.18;;;;;;;-3.40;100.00;101160.31;5050963;28;20495;-37
2022/11/20 04:43:10;;;;;;;27.67;12.88;;;;;;;-3.41;100.00;101144.63;5047534;28;20547;-36
2022/11/20 04:45:35;;;;;;;22.88;12.07;;;;;;;-3.41;100.00;101140.22;5031494;28;20111;-34
2022/11/20 04:48:01;;;;;;;26.83;13.40;;;;;;;-3.37;100.00;101131.22;5031613;28;20041;-38
2022/11/20 04:50:26;;;;;;;26.83;12.32;;;;;;;-3.31;100.00;101141.41;5044688;28;20309;-35
2022/11/20 04:52:52;;;;;;;26.23;13.10;;;;;;;-3.34;100.00;101136.31;5034985;28;20041;-35
2022/11/20 04:55:17;;;;;;;26.63;12.73;;;;;;;-3.38;100.00;101137.41;5022445;28;20026;-36
2022/11/20 04:57:42;;;;;;;24.88;12.55;;;;;;;-3.38;100.00;101133.94;5024032;28;20036;-34
2022/11/20 05:00:08;;;;;;;30.13;13.60;;;;;;;-3.36;100.00;101138.19;5047657;28;20471;-36
2022/11/20 05:02:33;;;;;;;25.17;12.45;;;;;;;-3.37;100.00;101136.50;5042263;28;20032;-37
2022/11/20 05:04:59;;;;;;;28.05;12.95;;;;;;;-3.38;100.00;101142.66;5048529;28;20025;-38
2022/11/20 05:07:24;;;;;;;25.35;13.52;;;;;;;-3.37;100.00;101141.75;5041593;28;20098;-37
2022/11/20 05:09:49;;;;;;;24.80;12.35;;;;;;;-3.36;100.00;101142.59;5038672;28;20376;-34
2022/11/20 05:12:15;;;;;;;25.30;13.35;;;;;;;-3.37;100.00;101157.56;5044234;28;20041;-35
2022/11/20 05:14:40;;;;;;;25.48;12.38;;;;;;;-3.37;100.00;101140.88;5030303;28;20106;-35
2022/11/20 05:17:06;;;;;;;29.48;12.77;;;;;;;-3.33;100.00;101145.06;5029089;28;20041;-34
2022/11/20 05:19:31;;;;;;;27.42;12.52;;;;;;;-3.32;100.00;101139.72;5034326;28;20108;-36
2022/11/20 05:21:56;;;;;;;25.83;13.15;;;;;;;-3.32;100.00;101147.63;5035656;28;20447;-35
2022/11/20 05:24:22;;;;;;;24.60;12.55;;;;;;;-3.32;100.00;101147.63;5031325;28;20109;-34
2022/11/20 05:26:47;;;;;;;27.65;13.75;;;;;;;-3.31;100.00;101143.19;5036387;28;20039;-37
2022/11/20 05:29:12;;;;;;;24.73;12.82;;;;;;;-3.33;100.00;101139.78;5050432;28;20022;-35
2022/11/20 05:31:39;;;;;;;27.67;13.30;;;;;;;-3.34;100.00;101149.47;5038751;28;20153;-33
2022/11/20 05:34:05;;;;;;;28.20;13.20;;;;;;;-3.32;100.00;101128.31;5044583;28;20033;-34
2022/11/20 05:36:30;;;;;;;27.80;14.00;;;;;;;-3.33;100.00;101124.84;5053692;28;20036;-36
2022/11/20 05:38:55;;;;;;;27.38;13.77;;;;;;;-3.32;100.00;101120.41;5034962;28;20044;-36
2022/11/20 05:41:21;;;;;;;23.65;13.02;;;;;;;-3.29;100.00;101122.03;5038959;28;20438;-35
2022/11/20 05:43:47;;;;;;;29.98;14.32;;;;;;;-3.27;100.00;101114.91;5044587;28;20025;-35
2022/11/20 05:46:15;;;;;;;27.52;14.02;;;;;;;-3.16;100.00;101112.50;5054920;28;20021;-36
2022/11/20 05:48:41;;;;;;;29.40;14.75;;;;;;;-3.17;100.00;101111.66;5050605;28;20094;-35
2022/11/20 05:51:09;;;;;;;26.73;13.43;;;;;;;-3.12;100.00;101104.34;5050912;28;20141;-36
2022/11/20 05:53:35;;;;;;;25.20;12.98;;;;;;;-3.14;100.00;101097.47;5037244;28;20033;-35
2022/11/20 05:56:02;;;;;;;28.27;13.57;;;;;;;-3.18;100.00;101098.63;5047646;28;20033;-36
2022/11/20 05:58:28;;;;;;;28.50;13.95;;;;;;;-3.19;100.00;101096.91;5048490;28;20052;-36
2022/11/20 06:00:53;;;;;;;27.05;13.80;;;;;;;-3.15;100.00;101087.91;5048848;28;20033;-38
2022/11/20 06:03:19;;;;;;;24.40;12.95;;;;;;;-3.15;100.00;101082.63;5035596;28;20037;-34
2022/11/20 06:05:44;;;;;;;27.75;13.68;;;;;;;-3.20;100.00;101084.69;5049644;28;20032;-34
2022/11/20 06:08:13;;;;;;;23.33;12.88;;;;;;;-3.19;100.00;101081.94;5052793;28;20179;-34
2022/11/20 06:10:38;;;;;;;24.75;12.10;;;;;;;-3.15;100.00;101082.63;5034011;28;20468;-38
2022/11/20 06:13:03;;;;;;;26.13;13.82;;;;;;;-3.16;100.00;101076.53;5044607;28;20048;-38
2022/11/20 06:15:29;;;;;;;26.35;13.00;;;;;;;-3.14;100.00;101079.06;5049376;28;20384;-36
2022/11/20 06:17:55;;;;;;;28.17;14.38;;;;;;;-3.15;100.00;101077.38;5036726;28;20379;-34
2022/11/20 06:20:21;;;;;;;31.15;14.68;;;;;;;-3.14;100.00;101073.78;5045504;28;20439;-35
2022/11/20 06:22:47;;;;;;;28.88;13.65;;;;;;;-3.17;100.00;101073.97;5035895;28;20395;-36
2022/11/20 06:25:12;;;;;;;29.27;13.93;;;;;;;-3.17;100.00;101068.72;5037307;28;20025;-35
2022/11/20 06:27:38;;;;;;;26.98;12.90;;;;;;;-3.16;100.00;101070.38;5019843;28;20045;-36
2022/11/20 06:30:04;;;;;;;28.92;14.63;;;;;;;-3.14;100.00;101055.38;5053315;28;20378;-35
2022/11/20 06:32:29;;;;;;;28.67;13.18;;;;;;;-3.10;100.00;101064.78;5036241;28;20037;-37
2022/11/20 06:34:54;;;;;;;29.02;14.10;;;;;;;-3.11;100.00;101066.59;5037547;28;20033;-36
2022/11/20 06:37:20;;;;;;;27.25;13.60;;;;;;;-3.08;100.00;101070.81;5033073;28;20033;-38
2022/11/20 06:39:45;;;;;;;27.42;14.98;;;;;;;-3.01;100.00;101074.78;5030068;28;20113;-35
2022/11/20 06:42:10;;;;;;;36.08;15.25;;;;;;;-2.96;100.00;101066.63;5042563;28;20029;-35
2022/11/20 06:44:36;;;;;;;27.23;13.77;;;;;;;-2.93;100.00;101074.34;5038133;28;20033;-35
2022/11/20 06:47:01;;;;;;;27.27;14.73;;;;;;;-2.91;100.00;101081.22;5049451;28;20025;-36
2022/11/20 06:49:26;;;;;;;28.13;13.68;;;;;;;-2.82;100.00;101076.34;5034609;28;20109;-36
2022/11/20 06:51:52;;;;;;;30.38;15.10;;;;;;;-2.80;100.00;101071.84;5046215;28;20032;-36
2022/11/20 06:54:17;;;;;;;29.35;14.30;;;;;;;-2.77;100.00;101071.66;5047159;28;20417;-35
2022/11/20 06:56:47;;;;;;;33.53;14.95;;;;;;;-2.76;100.00;101065.47;5037824;28;20090;-36
2022/11/20 06:59:13;;;;;;;28.92;14.43;;;;;;;-2.71;100.00;101072.16;5035900;28;20041;-38
2022/11/20 07:01:38;;;;;;;31.60;15.32;;;;;;;-2.67;100.00;101072.81;5027155;28;20053;-35
2022/11/20 07:04:03;;;;;;;32.72;15.25;;;;;;;-2.62;100.00;101067.25;5043216;28;20119;-35
2022/11/20 07:06:29;;;;;;;29.15;15.05;;;;;;;-2.54;100.00;101063.22;5042049;28;20032;-35
2022/11/20 07:08:54;;;;;;;31.23;14.80;;;;;;;-2.50;100.00;101063.88;5029675;28;20032;-36
2022/11/20 07:11:20;;;;;;;31.73;15.70;;;;;;;-2.48;100.00;101054.94;5044015;28;20116;-39
2022/11/20 07:13:45;;;;;;;30.35;15.32;;;;;;;-2.40;100.00;101058.91;5037218;28;20063;-35
2022/11/20 07:16:10;;;;;;;28.08;14.85;;;;;;;-2.46;100.00;101060.97;5047451;28;20487;-38
2022/11/20 07:18:36;;;;;;;27.40;14.32;;;;;;;-2.45;100.00;101051.25;5032223;28;20072;-35
2022/11/20 07:21:02;;;;;;;36.10;16.90;;;;;;;-2.35;100.00;101051.56;5033431;28;20604;-37
2022/11/20 07:23:28;;;;;;;33.70;15.13;;;;;;;-2.30;100.00;101049.50;5031869;28;20057;-34
2022/11/20 07:25:53;;;;;;;29.02;14.30;;;;;;;-2.24;100.00;101051.75;5031626;28;20566;-37
2022/11/20 07:28:18;;;;;;;29.83;15.40;;;;;;;-2.27;100.00;101065.13;5039394;28;20162;-35
2022/11/20 07:30:50;;;;;;;29.02;14.63;;;;;;;-2.29;100.00;101059.09;5047104;28;20056;-35
2022/11/20 07:33:15;;;;;;;31.88;14.93;;;;;;;-2.25;100.00;101073.78;5040303;28;20044;-35
2022/11/20 07:35:40;;;;;;;31.73;15.10;;;;;;;-2.15;100.00;101060.91;5036642;28;20033;-38
2022/11/20 07:38:06;;;;;;;33.45;16.00;;;;;;;-2.17;100.00;101054.88;5046295;28;20032;-36
2022/11/20 07:40:31;;;;;;;31.98;15.40;;;;;;;-2.15;100.00;101059.09;5037522;28;20055;-37
2022/11/20 07:42:56;;;;;;;32.20;14.80;;;;;;;-2.14;100.00;101058.16;5036567;28;20040;-35
2022/11/20 07:45:23;;;;;;;33.80;15.32;;;;;;;-2.19;100.00;101060.22;5032137;28;20029;-34
2022/11/20 07:47:49;;;;;;;29.98;15.25;;;;;;;-2.18;100.00;101067.22;5043209;28;20668;-37
2022/11/20 07:50:15;;;;;;;32.10;15.75;;;;;;;-2.11;100.00;101065.88;5032623;28;20033;-37
2022/11/20 07:52:40;;;;;;;29.52;14.93;;;;;;;-2.04;100.00;101067.19;5028536;28;20036;-34
2022/11/20 07:55:06;;;;;;;28.50;15.25;;;;;;;-2.04;100.00;101067.19;5030336;28;20044;-34
2022/11/20 07:57:31;;;;;;;30.20;15.00;;;;;;;-1.99;100.00;101061.63;5031168;28;20549;-38
2022/11/20 07:59:57;;;;;;;30.85;14.50;;;;;;;-1.84;100.00;101042.22;5046236;28;20035;-38
2022/11/20 08:02:22;;;;;;;29.65;15.48;;;;;;;-1.83;100.00;101053.59;5034421;28;20067;-39
2022/11/20 08:04:47;;;;;;;27.38;14.60;;;;;;;-1.72;100.00;101045.00;5033000;28;20041;-36
2022/11/20 08:07:13;;;;;;;37.40;16.40;;;;;;;-1.66;100.00;101048.13;5037562;28;20048;-36
2022/11/20 08:09:38;;;;;;;31.75;15.68;;;;;;;-1.63;100.00;101053.19;5032384;28;20063;-39
2022/11/20 08:14:49;;;;;;;32.95;16.10;;;;;;;-1.55;100.00;101042.16;5033705;28;20135;-38
2022/11/20 08:17:14;;;;;;;33.08;15.48;;;;;;;-1.46;100.00;101051.25;5045524;28;20124;-35
2022/11/20 08:19:40;;;;;;;34.40;15.80;;;;;;;-1.49;100.00;101051.44;5046014;28;20439;-36
2022/11/20 08:22:05;;;;;;;32.40;15.90;;;;;;;-1.44;100.00;101052.00;5012474;28;20120;-37
2022/11/20 08:24:30;;;;;;;32.30;16.65;;;;;;;-1.42;100.00;101053.59;5040357;28;20053;-37
2022/11/20 08:26:59;;;;;;;30.50;15.43;;;;;;;-1.29;100.00;101043.09;5037831;28;20032;-34
2022/11/20 08:29:26;;;;;;;31.83;16.17;;;;;;;-1.25;100.00;101038.44;5047924;28;20052;-36
2022/11/20 08:31:52;;;;;;;32.53;16.13;;;;;;;-1.30;100.00;101038.75;5036029;28;20036;-38
2022/11/20 08:34:17;;;;;;;29.20;15.85;;;;;;;-1.25;100.00;101039.28;5043277;28;20794;-38
2022/11/20 08:36:43;;;;;;;33.17;16.98;;;;;;;-1.26;100.00;101031.44;5030796;28;20138;-39
2022/11/20 08:39:11;;;;;;;35.20;16.75;;;;;;;-1.21;100.00;101034.63;5031638;28;20490;-39
2022/11/20 08:41:37;;;;;;;31.95;16.98;;;;;;;-1.13;100.00;101027.91;5010738;28;20475;-36
2022/11/20 08:44:04;;;;;;;32.78;16.70;;;;;;;-1.08;100.00;101037.31;5033997;28;20031;-36
2022/11/20 08:46:35;;;;;;;40.85;18.25;;;;;;;-1.07;100.00;101036.38;5040950;28;20048;-38
2022/11/20 08:49:00;;;;;;;33.90;17.20;;;;;;;-1.01;100.00;101039.44;5043116;28;20135;-38
2022/11/20 08:51:26;;;;;;;36.25;18.23;;;;;;;-0.92;100.00;101035.38;5033009;28;20107;-39
2022/11/20 08:53:51;;;;;;;31.23;16.70;;;;;;;-0.77;100.00;101030.81;5046744;28;20360;-37
2022/11/20 08:56:17;;;;;;;33.72;17.15;;;;;;;-0.70;100.00;101030.28;5043148;28;20044;-37
2022/11/20 08:58:43;;;;;;;32.83;17.67;;;;;;;-0.61;100.00;101038.53;5048379;28;20441;-35
2022/11/20 09:01:08;;;;;;;31.88;16.65;;;;;;;-0.51;100.00;101034.31;5037418;28;20498;-35
2022/11/20 09:03:33;;;;;;;37.13;16.52;;;;;;;-0.51;100.00;101040.44;5045745;28;20475;-35
2022/11/20 09:06:03;;;;;;;36.47;17.73;;;;;;;-0.42;100.00;101039.00;5039851;28;20025;-35
2022/11/20 09:08:29;;;;;;;35.55;17.70;;;;;;;-0.32;100.00;101033.88;5038398;28;20101;-35
2022/11/20 09:10:55;;;;;;;33.60;17.45;;;;;;;-0.33;100.00;101033.03;5044877;28;20082;-34
2022/11/20 09:13:22;;;;;;;31.92;16.52;;;;;;;-0.29;100.00;101023.97;5053179;28;20024;-37
2022/11/20 09:15:52;;;;;;;33.42;17.73;;;;;;;-0.34;100.00;101009.34;5046144;28;20072;-35
2022/11/20 09:18:17;;;;;;;34.47;17.10;;;;;;;-0.24;100.00;101011.25;5037728;28;20413;-36
2022/11/20 09:20:42;;;;;;;31.70;17.17;;;;;;;-0.20;100.00;101000.47;5054090;28;20117;-36
2022/11/20 09:23:08;;;;;;;33.78;17.67;;;;;;;-0.16;100.00;101004.56;5037686;28;20200;-35
2022/11/20 09:25:33;;;;;;;31.85;16.58;;;;;;;-0.10;100.00;100985.63;5030051;28;20064;-36
2022/11/20 09:28:00;;;;;;;35.90;18.08;;;;;;;0.05;100.00;100973.06;5047387;28;20420;-37
2022/11/20 09:30:26;;;;;;;32.88;17.25;;;;;;;0.01;100.00;100982.22;5042899;28;20034;-36
2022/11/20 09:32:53;;;;;;;32.63;16.75;;;;;;;-0.01;100.00;100982.31;5037702;28;20161;-33
2022/11/20 09:35:18;;;;;;;32.50;17.05;;;;;;;-0.10;100.00;100985.63;5034835;28;20090;-37
2022/11/20 09:37:44;;;;;;;34.75;17.17;;;;;;;0.00;100.00;100970.78;5031881;28;20021;-36
2022/11/20 09:40:19;;;;;;;33.65;18.40;;;;;;;-0.03;100.00;100965.69;5035716;28;20033;-35
2022/11/20 09:42:49;;;;;;;37.75;19.23;;;;;;;0.05;100.00;100958.03;5043835;28;20037;-35
2022/11/20 09:45:23;;;;;;;35.35;18.85;;;;;;;0.02;100.00;100963.56;5040154;28;20044;-37
2022/11/20 09:48:03;;;;;;;42.13;20.50;;;;;;;0.14;100.00;100957.38;5035980;28;20433;-36
2022/11/20 09:50:34;;;;;;;40.63;19.60;;;;;;;0.15;100.00;100953.78;5043233;28;20044;-37
2022/11/20 09:53:43;;;;;;;38.10;20.45;;;;;;;0.21;100.00;100942.75;5032950;28;20068;-35
2022/11/20 09:56:12;;;;;;;38.65;17.77;;;;;;;0.32;100.00;100934.03;5033461;28;20034;-38
2022/11/20 09:58:52;;;;;;;39.28;18.95;;;;;;;0.33;100.00;100929.56;5046787;28;20447;-35
2022/11/20 10:01:19;;;;;;;35.15;19.30;;;;;;;0.35;100.00;100925.00;5013996;28;20032;-35
2022/11/20 10:03:58;;;;;;;38.67;20.02;;;;;;;0.41;100.00;100924.53;5029521;28;20032;-35
2022/11/20 10:06:29;;;;;;;38.63;19.30;;;;;;;0.29;100.00;100915.72;5031927;28;20029;-35
2022/11/20 10:09:03;;;;;;;39.67;20.00;;;;;;;0.35;100.00;100906.47;5029477;28;20120;-37
2022/11/20 10:12:01;;;;;;;40.08;18.98;;;;;;;0.41;100.00;100900.72;5037875;28;20132;-35
2022/11/20 10:15:01;;;;;;;38.92;20.52;;;;;;;0.41;100.00;100890.13;5036370;28;20036;-38
2022/11/20 10:18:04;;;;;;;36.00;19.65;;;;;;;0.56;100.00;100883.66;5027584;28;20045;-35
2022/11/20 10:20:35;;;;;;;41.03;19.98;;;;;;;0.48;100.00;100879.94;5033079;28;20033;-37
2022/11/20 10:23:28;;;;;;;50.08;21.92;;;;;;;0.53;100.00;100878.63;5037002;28;20029;-35
2022/11/20 10:26:11;;;;;;;49.78;21.73;;;;;;;0.51;100.00;100875.22;5041826;28;20033;-38
2022/11/20 10:29:07;;;;;;;42.00;20.65;;;;;;;0.56;100.00;100878.38;5046302;28;20095;-38
2022/11/20 10:31:44;;;;;;;44.42;21.13;;;;;;;0.52;100.00;100868.97;5043525;28;20042;-39
2022/11/20 10:34:21;;;;;;;44.10;20.70;;;;;;;0.51;100.00;100864.63;5045841;28;20032;-37
2022/11/20 10:36:54;;;;;;;41.35;20.88;;;;;;;0.50;100.00;100862.97;5040583;28;20490;-35
2022/11/20 10:39:30;;;;;;;45.53;20.92;;;;;;;0.61;100.00;100868.28;5048741;28;20034;-37
2022/11/20 10:41:55;;;;;;;45.95;22.00;;;;;;;0.67;100.00;100859.00;5033776;28;20029;-34
2022/11/20 10:47:16;;;;;;;;;;;;;;;0.84;100.00;100855.06;5048559;28;20403;-35
2022/11/20 10:49:42;;;;;;;44.72;23.15;;;;;;;0.85;100.00;100851.47;5051644;28;20000;-35
2022/11/20 10:52:32;;;;;;;41.65;21.13;;;;;;;1.00;100.00;100834.38;5043366;28;20026;-35
2022/11/20 10:55:03;;;;;;;46.70;21.67;;;;;;;1.01;100.00;100843.16;5034519;28;20028;-37
2022/11/20 10:57:50;;;;;;;49.70;23.10;;;;;;;1.08;100.00;100831.13;5051870;28;20083;-36
2022/11/20 11:00:17;;;;;;;48.88;22.50;;;;;;;1.16;100.00;100825.19;5044225;28;20249;-34
2022/11/20 11:02:51;;;;;;;41.83;21.55;;;;;;;1.17;100.00;100819.78;5041990;28;20056;-38
2022/11/20 11:05:35;;;;;;;44.75;22.38;;;;;;;1.18;100.00;100804.72;5051805;28;20060;-38
2022/11/20 11:08:00;;;;;;;42.63;21.65;;;;;;;1.26;100.00;100808.44;5057682;28;20082;-37
2022/11/20 11:10:36;;;;;;;40.10;21.35;;;;;;;1.18;100.00;100805.53;5053165;28;20033;-38
2022/11/20 11:13:03;;;;;;;43.65;22.30;;;;;;;1.20;100.00;100794.81;5038464;28;20028;-38
2022/11/20 11:15:35;;;;;;;43.72;22.67;;;;;;;1.29;100.00;100796.72;5034573;28;20064;-36